Pays
Station

 

Conditions  météo  pour  Traverse City, Cherry Capital Airport  -  Etats-Unis    Etats-Unis

  
-3 °C
    
 
 

METAR pour Traverse City, Cherry Capital Airport :

KTVC 230553Z AUTO 33003KT 10SM CLR M03/M07 A3022 RMK AO2 SLP243 T10331072 11011 21033 55000

 

Voici le bulletin pour Traverse City, Cherry Capital Airport - Etats-Unis.
 
Le bulletin a été fait il y a 52 minutes, à 05:53 UTC .
Le vent soufflait à la vitesse de 1.5 mètres par seconde de Nord/Nord-ouest (330°).
 
La température était de -3 °C, avec un point de rosée à -7 °C.
La température ressentie était de -5 °C.
 
La pression atmosphérique était de 1023 hPa.
L'humidité relative était de 73.8%.
 
Le ciel était clair.
 
La visibilité globale était de 16.1 kilomètres.
 

 
 
 

Pays :   A   B   C   D   E   F   G   H   I   J   K   L   M   N   O   P   Q   R   S   T   U   V   W   Y   Z

 

Partenaires :  Info Météo avec Met'info
Météo Marine avec MeteoMarine.net
Infos Site  |  Infos Légales  |  Crédits  |  Confidentialité
Contactez-nous  |  Ajouter aux favoris
© 2013-2019 METAR - Tous droits réservés